sensor_id;sensor_type;location;lat;lon;timestamp;P1;durP1;ratioP1;P2;durP2;ratioP2
40286;SDS011;25998;46.604;13.610;2023-03-04T00:00:08;12.48;;;8.05;;
40286;SDS011;25998;46.604;13.610;2023-03-04T00:03:20;16.15;;;9.25;;
40286;SDS011;25998;46.604;13.610;2023-03-04T00:06:34;13.48;;;9.88;;
40286;SDS011;25998;46.604;13.610;2023-03-04T00:09:45;12.18;;;10.18;;
40286;SDS011;25998;46.604;13.610;2023-03-04T00:12:56;14.13;;;9.80;;
40286;SDS011;25998;46.604;13.610;2023-03-04T00:16:07;11.82;;;9.20;;
40286;SDS011;25998;46.604;13.610;2023-03-04T00:19:18;12.00;;;9.00;;
40286;SDS011;25998;46.604;13.610;2023-03-04T00:22:32;15.70;;;10.40;;
40286;SDS011;25998;46.604;13.610;2023-03-04T00:25:42;11.45;;;8.60;;
40286;SDS011;25998;46.604;13.610;2023-03-04T00:28:53;12.63;;;9.02;;
40286;SDS011;25998;46.604;13.610;2023-03-04T00:32:04;14.65;;;9.27;;
40286;SDS011;25998;46.604;13.610;2023-03-04T00:35:15;12.55;;;8.55;;
40286;SDS011;25998;46.604;13.610;2023-03-04T00:38:29;12.10;;;8.27;;
40286;SDS011;25998;46.604;13.610;2023-03-04T00:41:40;10.55;;;6.57;;
40286;SDS011;25998;46.604;13.610;2023-03-04T00:44:51;11.68;;;7.88;;
40286;SDS011;25998;46.604;13.610;2023-03-04T00:48:02;11.70;;;7.38;;
40286;SDS011;25998;46.604;13.610;2023-03-04T00:51:15;12.10;;;6.97;;
40286;SDS011;25998;46.604;13.610;2023-03-04T00:54:26;12.13;;;7.10;;
40286;SDS011;25998;46.604;13.610;2023-03-04T00:57:37;10.43;;;6.00;;
40286;SDS011;25998;46.604;13.610;2023-03-04T01:00:47;10.15;;;6.90;;
40286;SDS011;25998;46.604;13.610;2023-03-04T01:03:58;12.05;;;7.10;;
40286;SDS011;25998;46.604;13.610;2023-03-04T01:07:09;10.90;;;7.50;;
40286;SDS011;25998;46.604;13.610;2023-03-04T01:10:20;11.52;;;7.00;;
40286;SDS011;25998;46.604;13.610;2023-03-04T01:13:31;10.13;;;7.20;;
40286;SDS011;25998;46.604;13.610;2023-03-04T01:16:43;9.57;;;6.35;;
40286;SDS011;25998;46.604;13.610;2023-03-04T01:20:01;10.02;;;6.95;;
40286;SDS011;25998;46.604;13.610;2023-03-04T01:23:19;11.55;;;6.18;;
40286;SDS011;25998;46.604;13.610;2023-03-04T01:26:31;9.65;;;7.20;;
40286;SDS011;25998;46.604;13.610;2023-03-04T01:29:41;9.75;;;6.70;;
40286;SDS011;25998;46.604;13.610;2023-03-04T01:32:52;9.75;;;6.32;;
40286;SDS011;25998;46.604;13.610;2023-03-04T01:36:03;9.45;;;6.53;;
40286;SDS011;25998;46.604;13.610;2023-03-04T01:39:14;10.25;;;6.15;;
40286;SDS011;25998;46.604;13.610;2023-03-04T01:42:26;10.13;;;5.90;;
40286;SDS011;25998;46.604;13.610;2023-03-04T01:45:40;8.73;;;6.20;;
40286;SDS011;25998;46.604;13.610;2023-03-04T01:48:53;10.23;;;5.43;;
40286;SDS011;25998;46.604;13.610;2023-03-04T01:52:07;9.95;;;6.15;;
40286;SDS011;25998;46.604;13.610;2023-03-04T01:55:21;10.20;;;5.38;;
40286;SDS011;25998;46.604;13.610;2023-03-04T01:58:33;8.35;;;5.15;;
40286;SDS011;25998;46.604;13.610;2023-03-04T02:01:45;11.30;;;6.15;;
40286;SDS011;25998;46.604;13.610;2023-03-04T02:05:00;10.88;;;5.55;;
40286;SDS011;25998;46.604;13.610;2023-03-04T02:08:11;9.35;;;5.85;;
40286;SDS011;25998;46.604;13.610;2023-03-04T02:11:24;8.38;;;5.70;;
40286;SDS011;25998;46.604;13.610;2023-03-04T02:14:38;9.82;;;5.40;;
40286;SDS011;25998;46.604;13.610;2023-03-04T02:17:49;9.75;;;5.20;;
40286;SDS011;25998;46.604;13.610;2023-03-04T02:24:31;11.38;;;5.43;;
40286;SDS011;25998;46.604;13.610;2023-03-04T02:27:52;7.97;;;5.35;;
40286;SDS011;25998;46.604;13.610;2023-03-04T02:31:06;9.68;;;5.35;;
40286;SDS011;25998;46.604;13.610;2023-03-04T02:34:28;8.48;;;5.90;;
40286;SDS011;25998;46.604;13.610;2023-03-04T02:37:43;9.20;;;5.45;;
40286;SDS011;25998;46.604;13.610;2023-03-04T02:40:54;7.53;;;5.15;;
40286;SDS011;25998;46.604;13.610;2023-03-04T02:44:23;8.95;;;5.43;;
40286;SDS011;25998;46.604;13.610;2023-03-04T02:47:38;9.45;;;6.53;;
40286;SDS011;25998;46.604;13.610;2023-03-04T02:50:50;11.00;;;5.97;;
40286;SDS011;25998;46.604;13.610;2023-03-04T02:54:13;11.38;;;5.07;;
40286;SDS011;25998;46.604;13.610;2023-03-04T02:57:28;8.75;;;5.28;;
40286;SDS011;25998;46.604;13.610;2023-03-04T03:00:39;11.80;;;5.30;;
40286;SDS011;25998;46.604;13.610;2023-03-04T03:03:53;10.63;;;5.10;;
40286;SDS011;25998;46.604;13.610;2023-03-04T03:07:04;8.52;;;5.18;;
40286;SDS011;25998;46.604;13.610;2023-03-04T03:10:15;12.82;;;6.07;;
40286;SDS011;25998;46.604;13.610;2023-03-04T03:13:26;8.55;;;5.50;;
40286;SDS011;25998;46.604;13.610;2023-03-04T03:16:38;11.23;;;5.63;;
40286;SDS011;25998;46.604;13.610;2023-03-04T03:19:49;6.57;;;4.72;;
40286;SDS011;25998;46.604;13.610;2023-03-04T03:22:59;10.52;;;6.32;;
40286;SDS011;25998;46.604;13.610;2023-03-04T03:26:11;11.13;;;6.07;;
40286;SDS011;25998;46.604;13.610;2023-03-04T03:29:22;9.18;;;4.60;;
40286;SDS011;25998;46.604;13.610;2023-03-04T03:32:32;9.70;;;5.18;;
40286;SDS011;25998;46.604;13.610;2023-03-04T03:35:43;9.30;;;4.93;;
40286;SDS011;25998;46.604;13.610;2023-03-04T03:38:54;10.32;;;5.57;;
40286;SDS011;25998;46.604;13.610;2023-03-04T03:42:06;10.25;;;5.20;;
40286;SDS011;25998;46.604;13.610;2023-03-04T03:45:17;8.43;;;5.38;;
40286;SDS011;25998;46.604;13.610;2023-03-04T03:48:28;10.60;;;5.57;;
40286;SDS011;25998;46.604;13.610;2023-03-04T03:51:39;12.85;;;5.97;;
40286;SDS011;25998;46.604;13.610;2023-03-04T03:54:50;12.25;;;6.05;;
40286;SDS011;25998;46.604;13.610;2023-03-04T03:58:01;14.25;;;6.20;;
40286;SDS011;25998;46.604;13.610;2023-03-04T04:01:14;11.13;;;6.03;;
40286;SDS011;25998;46.604;13.610;2023-03-04T04:04:25;13.82;;;5.50;;
40286;SDS011;25998;46.604;13.610;2023-03-04T04:07:36;11.32;;;5.57;;
40286;SDS011;25998;46.604;13.610;2023-03-04T04:10:47;10.50;;;6.00;;
40286;SDS011;25998;46.604;13.610;2023-03-04T04:13:58;12.70;;;5.95;;
40286;SDS011;25998;46.604;13.610;2023-03-04T04:17:09;9.77;;;5.65;;
40286;SDS011;25998;46.604;13.610;2023-03-04T04:20:20;14.50;;;6.25;;
40286;SDS011;25998;46.604;13.610;2023-03-04T04:23:31;10.55;;;5.50;;
40286;SDS011;25998;46.604;13.610;2023-03-04T04:26:42;7.88;;;5.35;;
40286;SDS011;25998;46.604;13.610;2023-03-04T04:29:53;13.77;;;5.72;;
40286;SDS011;25998;46.604;13.610;2023-03-04T04:33:07;8.00;;;4.95;;
40286;SDS011;25998;46.604;13.610;2023-03-04T04:36:19;9.88;;;5.30;;
40286;SDS011;25998;46.604;13.610;2023-03-04T04:39:30;9.60;;;5.65;;
40286;SDS011;25998;46.604;13.610;2023-03-04T04:42:41;8.40;;;5.00;;
40286;SDS011;25998;46.604;13.610;2023-03-04T04:45:51;9.32;;;5.03;;
40286;SDS011;25998;46.604;13.610;2023-03-04T04:49:02;11.20;;;5.30;;
40286;SDS011;25998;46.604;13.610;2023-03-04T04:52:14;10.52;;;4.97;;
40286;SDS011;25998;46.604;13.610;2023-03-04T04:55:25;8.30;;;4.93;;
40286;SDS011;25998;46.604;13.610;2023-03-04T04:58:36;10.77;;;5.47;;
40286;SDS011;25998;46.604;13.610;2023-03-04T05:01:47;10.07;;;5.07;;
40286;SDS011;25998;46.604;13.610;2023-03-04T05:04:58;10.50;;;5.60;;
40286;SDS011;25998;46.604;13.610;2023-03-04T05:08:09;10.40;;;5.57;;
40286;SDS011;25998;46.604;13.610;2023-03-04T05:11:20;9.63;;;5.15;;
40286;SDS011;25998;46.604;13.610;2023-03-04T05:14:31;7.68;;;5.20;;
40286;SDS011;25998;46.604;13.610;2023-03-04T05:17:41;9.68;;;4.78;;
40286;SDS011;25998;46.604;13.610;2023-03-04T05:20:53;9.90;;;5.10;;
40286;SDS011;25998;46.604;13.610;2023-03-04T05:24:08;11.00;;;4.63;;
40286;SDS011;25998;46.604;13.610;2023-03-04T05:27:19;8.05;;;5.38;;
40286;SDS011;25998;46.604;13.610;2023-03-04T05:30:30;9.52;;;5.22;;
40286;SDS011;25998;46.604;13.610;2023-03-04T05:33:41;12.10;;;5.53;;
40286;SDS011;25998;46.604;13.610;2023-03-04T05:36:52;10.63;;;5.63;;
40286;SDS011;25998;46.604;13.610;2023-03-04T05:40:03;11.43;;;5.50;;
40286;SDS011;25998;46.604;13.610;2023-03-04T05:43:15;8.88;;;5.43;;
40286;SDS011;25998;46.604;13.610;2023-03-04T05:46:26;9.07;;;5.28;;
40286;SDS011;25998;46.604;13.610;2023-03-04T05:49:37;11.00;;;5.57;;
40286;SDS011;25998;46.604;13.610;2023-03-04T05:52:48;11.70;;;5.15;;
40286;SDS011;25998;46.604;13.610;2023-03-04T05:55:59;7.95;;;5.18;;
40286;SDS011;25998;46.604;13.610;2023-03-04T05:59:09;9.07;;;4.70;;
40286;SDS011;25998;46.604;13.610;2023-03-04T06:02:20;9.80;;;4.80;;
40286;SDS011;25998;46.604;13.610;2023-03-04T06:05:31;8.48;;;5.50;;
40286;SDS011;25998;46.604;13.610;2023-03-04T06:08:42;8.55;;;5.72;;
40286;SDS011;25998;46.604;13.610;2023-03-04T06:11:53;10.60;;;5.55;;
40286;SDS011;25998;46.604;13.610;2023-03-04T06:15:04;11.82;;;5.60;;
40286;SDS011;25998;46.604;13.610;2023-03-04T06:18:22;10.27;;;5.32;;
40286;SDS011;25998;46.604;13.610;2023-03-04T06:21:34;9.48;;;5.00;;
40286;SDS011;25998;46.604;13.610;2023-03-04T06:24:45;20.25;;;11.27;;
40286;SDS011;25998;46.604;13.610;2023-03-04T06:27:56;59.42;;;30.20;;
40286;SDS011;25998;46.604;13.610;2023-03-04T06:31:07;19.85;;;10.98;;
40286;SDS011;25998;46.604;13.610;2023-03-04T06:34:18;13.68;;;8.93;;
40286;SDS011;25998;46.604;13.610;2023-03-04T06:37:29;10.43;;;6.85;;
40286;SDS011;25998;46.604;13.610;2023-03-04T06:40:40;10.85;;;6.22;;
40286;SDS011;25998;46.604;13.610;2023-03-04T06:43:54;10.30;;;6.78;;
40286;SDS011;25998;46.604;13.610;2023-03-04T06:47:05;12.32;;;7.40;;
40286;SDS011;25998;46.604;13.610;2023-03-04T06:50:16;18.10;;;7.75;;
40286;SDS011;25998;46.604;13.610;2023-03-04T06:53:27;12.32;;;7.93;;
40286;SDS011;25998;46.604;13.610;2023-03-04T06:56:38;13.68;;;7.75;;
40286;SDS011;25998;46.604;13.610;2023-03-04T06:59:48;33.05;;;17.13;;
40286;SDS011;25998;46.604;13.610;2023-03-04T07:02:59;15.68;;;8.45;;
40286;SDS011;25998;46.604;13.610;2023-03-04T07:06:11;12.68;;;6.75;;
40286;SDS011;25998;46.604;13.610;2023-03-04T07:09:25;14.45;;;7.18;;
40286;SDS011;25998;46.604;13.610;2023-03-04T07:12:36;14.90;;;7.15;;
40286;SDS011;25998;46.604;13.610;2023-03-04T07:15:46;17.23;;;6.35;;
40286;SDS011;25998;46.604;13.610;2023-03-04T07:18:57;9.13;;;6.65;;
40286;SDS011;25998;46.604;13.610;2023-03-04T07:22:11;15.40;;;7.38;;
40286;SDS011;25998;46.604;13.610;2023-03-04T07:25:24;10.95;;;6.93;;
40286;SDS011;25998;46.604;13.610;2023-03-04T07:28:35;10.23;;;7.00;;
40286;SDS011;25998;46.604;13.610;2023-03-04T07:31:47;9.27;;;6.28;;
40286;SDS011;25998;46.604;13.610;2023-03-04T07:34:58;13.05;;;7.10;;
40286;SDS011;25998;46.604;13.610;2023-03-04T07:38:09;10.75;;;6.90;;
40286;SDS011;25998;46.604;13.610;2023-03-04T07:41:20;12.05;;;6.57;;
40286;SDS011;25998;46.604;13.610;2023-03-04T07:44:33;10.32;;;6.57;;
40286;SDS011;25998;46.604;13.610;2023-03-04T07:47:44;9.70;;;6.60;;
40286;SDS011;25998;46.604;13.610;2023-03-04T07:54:25;7.88;;;5.63;;
40286;SDS011;25998;46.604;13.610;2023-03-04T07:57:42;8.60;;;5.95;;
40286;SDS011;25998;46.604;13.610;2023-03-04T08:00:56;7.32;;;4.80;;
40286;SDS011;25998;46.604;13.610;2023-03-04T08:04:19;7.00;;;5.18;;
40286;SDS011;25998;46.604;13.610;2023-03-04T08:07:33;7.18;;;5.00;;
40286;SDS011;25998;46.604;13.610;2023-03-04T08:10:46;7.57;;;5.93;;
40286;SDS011;25998;46.604;13.610;2023-03-04T08:14:00;10.05;;;5.13;;
40286;SDS011;25998;46.604;13.610;2023-03-04T08:17:11;6.55;;;4.70;;
40286;SDS011;25998;46.604;13.610;2023-03-04T08:20:23;8.23;;;5.00;;
40286;SDS011;25998;46.604;13.610;2023-03-04T08:23:37;9.45;;;4.35;;
40286;SDS011;25998;46.604;13.610;2023-03-04T08:26:49;7.05;;;4.53;;
40286;SDS011;25998;46.604;13.610;2023-03-04T08:30:00;5.88;;;4.18;;
40286;SDS011;25998;46.604;13.610;2023-03-04T08:33:11;6.60;;;3.75;;
40286;SDS011;25998;46.604;13.610;2023-03-04T08:36:22;6.00;;;3.70;;
40286;SDS011;25998;46.604;13.610;2023-03-04T08:39:33;5.32;;;3.47;;
40286;SDS011;25998;46.604;13.610;2023-03-04T08:42:45;6.03;;;3.28;;
40286;SDS011;25998;46.604;13.610;2023-03-04T08:45:56;5.85;;;3.67;;
40286;SDS011;25998;46.604;13.610;2023-03-04T08:49:09;6.97;;;3.05;;
40286;SDS011;25998;46.604;13.610;2023-03-04T08:52:23;6.78;;;3.72;;
40286;SDS011;25998;46.604;13.610;2023-03-04T08:55:40;8.13;;;3.70;;
40286;SDS011;25998;46.604;13.610;2023-03-04T08:58:52;8.27;;;3.47;;
40286;SDS011;25998;46.604;13.610;2023-03-04T09:02:03;6.03;;;3.28;;
40286;SDS011;25998;46.604;13.610;2023-03-04T09:05:14;4.32;;;3.20;;
40286;SDS011;25998;46.604;13.610;2023-03-04T09:08:25;9.15;;;3.47;;
40286;SDS011;25998;46.604;13.610;2023-03-04T09:11:36;5.10;;;2.67;;
40286;SDS011;25998;46.604;13.610;2023-03-04T09:14:47;8.85;;;3.35;;
40286;SDS011;25998;46.604;13.610;2023-03-04T09:17:58;5.03;;;3.00;;
40286;SDS011;25998;46.604;13.610;2023-03-04T09:21:10;11.73;;;3.55;;
40286;SDS011;25998;46.604;13.610;2023-03-04T09:24:21;5.93;;;3.45;;
40286;SDS011;25998;46.604;13.610;2023-03-04T09:27:32;6.57;;;3.35;;
40286;SDS011;25998;46.604;13.610;2023-03-04T09:30:43;27.00;;;5.00;;
40286;SDS011;25998;46.604;13.610;2023-03-04T09:33:55;11.32;;;3.63;;
40286;SDS011;25998;46.604;13.610;2023-03-04T09:37:07;5.68;;;3.40;;
40286;SDS011;25998;46.604;13.610;2023-03-04T09:40:20;6.65;;;3.30;;
40286;SDS011;25998;46.604;13.610;2023-03-04T09:43:32;4.93;;;2.78;;
40286;SDS011;25998;46.604;13.610;2023-03-04T09:46:47;6.60;;;3.40;;
40286;SDS011;25998;46.604;13.610;2023-03-04T09:50:00;6.10;;;3.00;;
40286;SDS011;25998;46.604;13.610;2023-03-04T09:53:20;5.15;;;3.25;;
40286;SDS011;25998;46.604;13.610;2023-03-04T09:56:39;9.77;;;4.07;;
40286;SDS011;25998;46.604;13.610;2023-03-04T09:59:59;6.00;;;3.75;;
40286;SDS011;25998;46.604;13.610;2023-03-04T10:03:40;7.55;;;2.80;;
40286;SDS011;25998;46.604;13.610;2023-03-04T10:06:57;5.80;;;3.05;;
40286;SDS011;25998;46.604;13.610;2023-03-04T10:10:14;7.50;;;3.00;;
40286;SDS011;25998;46.604;13.610;2023-03-04T10:13:34;8.07;;;3.03;;
40286;SDS011;25998;46.604;13.610;2023-03-04T10:23:27;7.20;;;3.40;;
40286;SDS011;25998;46.604;13.610;2023-03-04T10:26:41;6.85;;;2.90;;
40286;SDS011;25998;46.604;13.610;2023-03-04T10:29:57;6.05;;;2.92;;
40286;SDS011;25998;46.604;13.610;2023-03-04T10:33:14;7.03;;;2.65;;
40286;SDS011;25998;46.604;13.610;2023-03-04T10:39:46;6.85;;;2.90;;
40286;SDS011;25998;46.604;13.610;2023-03-04T10:42:59;6.47;;;2.80;;
40286;SDS011;25998;46.604;13.610;2023-03-04T10:46:10;7.07;;;2.80;;
40286;SDS011;25998;46.604;13.610;2023-03-04T10:49:22;7.75;;;2.95;;
40286;SDS011;25998;46.604;13.610;2023-03-04T10:52:38;7.60;;;3.00;;
40286;SDS011;25998;46.604;13.610;2023-03-04T11:02:45;5.70;;;2.42;;
40286;SDS011;25998;46.604;13.610;2023-03-04T11:06:11;12.13;;;3.15;;
40286;SDS011;25998;46.604;13.610;2023-03-04T11:09:31;5.90;;;2.72;;
40286;SDS011;25998;46.604;13.610;2023-03-04T11:12:46;6.35;;;2.60;;
40286;SDS011;25998;46.604;13.610;2023-03-04T11:16:24;5.78;;;2.80;;
40286;SDS011;25998;46.604;13.610;2023-03-04T11:19:37;4.45;;;2.50;;
40286;SDS011;25998;46.604;13.610;2023-03-04T11:22:49;8.55;;;2.97;;
40286;SDS011;25998;46.604;13.610;2023-03-04T11:26:01;5.40;;;2.78;;
40286;SDS011;25998;46.604;13.610;2023-03-04T11:29:21;6.43;;;2.20;;
40286;SDS011;25998;46.604;13.610;2023-03-04T11:32:37;7.25;;;2.58;;
40286;SDS011;25998;46.604;13.610;2023-03-04T11:36:03;7.00;;;2.80;;
40286;SDS011;25998;46.604;13.610;2023-03-04T11:39:19;6.85;;;2.83;;
40286;SDS011;25998;46.604;13.610;2023-03-04T11:43:42;7.22;;;2.42;;
40286;SDS011;25998;46.604;13.610;2023-03-04T11:50:17;5.00;;;2.65;;
40286;SDS011;25998;46.604;13.610;2023-03-04T11:53:36;18.10;;;3.78;;
40286;SDS011;25998;46.604;13.610;2023-03-04T12:00:30;6.85;;;2.50;;
40286;SDS011;25998;46.604;13.610;2023-03-04T12:32:20;4.18;;;2.00;;
40286;SDS011;25998;46.604;13.610;2023-03-04T12:35:51;4.93;;;1.98;;
40286;SDS011;25998;46.604;13.610;2023-03-04T12:46:16;6.85;;;1.85;;
40286;SDS011;25998;46.604;13.610;2023-03-04T12:49:44;4.82;;;1.88;;
40286;SDS011;25998;46.604;13.610;2023-03-04T12:53:32;5.38;;;2.03;;
40286;SDS011;25998;46.604;13.610;2023-03-04T12:56:53;6.15;;;1.95;;
40286;SDS011;25998;46.604;13.610;2023-03-04T13:07:35;4.97;;;1.67;;
40286;SDS011;25998;46.604;13.610;2023-03-04T13:10:49;5.78;;;1.58;;
40286;SDS011;25998;46.604;13.610;2023-03-04T13:20:45;9.52;;;1.73;;
40286;SDS011;25998;46.604;13.610;2023-03-04T13:31:21;4.72;;;1.60;;
40286;SDS011;25998;46.604;13.610;2023-03-04T13:34:51;6.00;;;1.83;;
40286;SDS011;25998;46.604;13.610;2023-03-04T13:41:46;3.60;;;1.50;;
40286;SDS011;25998;46.604;13.610;2023-03-04T13:45:00;4.35;;;1.90;;
40286;SDS011;25998;46.604;13.610;2023-03-04T13:48:30;5.82;;;2.20;;
40286;SDS011;25998;46.604;13.610;2023-03-04T13:51:47;6.03;;;2.35;;
40286;SDS011;25998;46.604;13.610;2023-03-04T13:59:52;5.47;;;1.63;;
40286;SDS011;25998;46.604;13.610;2023-03-04T14:03:20;7.97;;;2.00;;
40286;SDS011;25998;46.604;13.610;2023-03-04T14:10:03;3.50;;;1.70;;
40286;SDS011;25998;46.604;13.610;2023-03-04T14:13:29;6.97;;;2.53;;
40286;SDS011;25998;46.604;13.610;2023-03-04T14:16:53;6.20;;;1.77;;
40286;SDS011;25998;46.604;13.610;2023-03-04T14:20:59;4.50;;;1.30;;
40286;SDS011;25998;46.604;13.610;2023-03-04T14:28:11;6.03;;;1.60;;
40286;SDS011;25998;46.604;13.610;2023-03-04T14:32:11;5.63;;;1.50;;
40286;SDS011;25998;46.604;13.610;2023-03-04T14:39:55;4.40;;;1.45;;
40286;SDS011;25998;46.604;13.610;2023-03-04T14:43:47;5.70;;;1.60;;
40286;SDS011;25998;46.604;13.610;2023-03-04T14:51:49;5.15;;;1.75;;
40286;SDS011;25998;46.604;13.610;2023-03-04T14:58:38;4.80;;;1.70;;
40286;SDS011;25998;46.604;13.610;2023-03-04T15:02:12;5.32;;;2.03;;
40286;SDS011;25998;46.604;13.610;2023-03-04T15:05:47;5.07;;;1.80;;
40286;SDS011;25998;46.604;13.610;2023-03-04T15:09:05;3.25;;;1.35;;
40286;SDS011;25998;46.604;13.610;2023-03-04T15:12:35;6.63;;;2.28;;
40286;SDS011;25998;46.604;13.610;2023-03-04T15:15:59;6.63;;;2.05;;
40286;SDS011;25998;46.604;13.610;2023-03-04T15:19:24;9.88;;;2.35;;
40286;SDS011;25998;46.604;13.610;2023-03-04T15:26:03;6.95;;;1.70;;
40286;SDS011;25998;46.604;13.610;2023-03-04T15:29:23;4.45;;;1.70;;
40286;SDS011;25998;46.604;13.610;2023-03-04T15:32:37;10.38;;;2.70;;
40286;SDS011;25998;46.604;13.610;2023-03-04T15:35:52;10.23;;;2.85;;
40286;SDS011;25998;46.604;13.610;2023-03-04T15:39:25;6.05;;;2.25;;
40286;SDS011;25998;46.604;13.610;2023-03-04T15:42:43;7.78;;;2.00;;
40286;SDS011;25998;46.604;13.610;2023-03-04T15:45:57;5.05;;;2.20;;
40286;SDS011;25998;46.604;13.610;2023-03-04T15:49:08;4.97;;;2.30;;
40286;SDS011;25998;46.604;13.610;2023-03-04T15:52:19;7.25;;;2.58;;
40286;SDS011;25998;46.604;13.610;2023-03-04T15:55:31;8.05;;;2.85;;
40286;SDS011;25998;46.604;13.610;2023-03-04T15:58:45;10.65;;;2.80;;
40286;SDS011;25998;46.604;13.610;2023-03-04T16:02:04;6.32;;;2.20;;
40286;SDS011;25998;46.604;13.610;2023-03-04T16:05:20;9.70;;;2.53;;
40286;SDS011;25998;46.604;13.610;2023-03-04T16:08:31;14.55;;;3.10;;
40286;SDS011;25998;46.604;13.610;2023-03-04T16:11:52;11.65;;;2.58;;
40286;SDS011;25998;46.604;13.610;2023-03-04T16:15:20;6.22;;;2.40;;
40286;SDS011;25998;46.604;13.610;2023-03-04T16:18:41;5.47;;;2.42;;
40286;SDS011;25998;46.604;13.610;2023-03-04T16:22:09;7.63;;;3.03;;
40286;SDS011;25998;46.604;13.610;2023-03-04T16:25:51;5.00;;;2.47;;
40286;SDS011;25998;46.604;13.610;2023-03-04T16:29:22;7.82;;;2.47;;
40286;SDS011;25998;46.604;13.610;2023-03-04T16:32:40;5.70;;;2.38;;
40286;SDS011;25998;46.604;13.610;2023-03-04T16:35:56;5.18;;;2.83;;
40286;SDS011;25998;46.604;13.610;2023-03-04T16:39:33;8.98;;;2.83;;
40286;SDS011;25998;46.604;13.610;2023-03-04T16:42:57;7.85;;;2.75;;
40286;SDS011;25998;46.604;13.610;2023-03-04T16:46:13;7.35;;;2.75;;
40286;SDS011;25998;46.604;13.610;2023-03-04T16:49:27;6.47;;;2.40;;
40286;SDS011;25998;46.604;13.610;2023-03-04T16:52:42;8.95;;;3.25;;
40286;SDS011;25998;46.604;13.610;2023-03-04T16:55:59;7.68;;;3.03;;
40286;SDS011;25998;46.604;13.610;2023-03-04T16:59:15;11.32;;;3.83;;
40286;SDS011;25998;46.604;13.610;2023-03-04T17:02:32;7.70;;;3.75;;
40286;SDS011;25998;46.604;13.610;2023-03-04T17:05:42;9.00;;;3.95;;
40286;SDS011;25998;46.604;13.610;2023-03-04T17:09:08;5.90;;;4.00;;
40286;SDS011;25998;46.604;13.610;2023-03-04T17:12:21;8.93;;;4.95;;
40286;SDS011;25998;46.604;13.610;2023-03-04T17:15:37;11.90;;;5.65;;
40286;SDS011;25998;46.604;13.610;2023-03-04T17:18:53;8.60;;;4.63;;
40286;SDS011;25998;46.604;13.610;2023-03-04T17:22:06;9.55;;;4.88;;
40286;SDS011;25998;46.604;13.610;2023-03-04T17:25:18;8.68;;;5.20;;
40286;SDS011;25998;46.604;13.610;2023-03-04T17:28:34;6.47;;;5.10;;
40286;SDS011;25998;46.604;13.610;2023-03-04T17:31:48;9.48;;;4.50;;
40286;SDS011;25998;46.604;13.610;2023-03-04T17:35:02;9.05;;;4.65;;
40286;SDS011;25998;46.604;13.610;2023-03-04T17:38:16;9.73;;;6.03;;
40286;SDS011;25998;46.604;13.610;2023-03-04T17:41:30;10.75;;;5.47;;
40286;SDS011;25998;46.604;13.610;2023-03-04T17:44:43;9.80;;;4.18;;
40286;SDS011;25998;46.604;13.610;2023-03-04T17:48:00;7.10;;;4.05;;
40286;SDS011;25998;46.604;13.610;2023-03-04T17:51:14;10.85;;;4.85;;
40286;SDS011;25998;46.604;13.610;2023-03-04T17:54:32;14.70;;;6.15;;
40286;SDS011;25998;46.604;13.610;2023-03-04T17:57:47;11.48;;;4.60;;
40286;SDS011;25998;46.604;13.610;2023-03-04T18:01:13;9.18;;;4.50;;
40286;SDS011;25998;46.604;13.610;2023-03-04T18:04:29;8.90;;;4.50;;
40286;SDS011;25998;46.604;13.610;2023-03-04T18:07:40;11.50;;;4.70;;
40286;SDS011;25998;46.604;13.610;2023-03-04T18:10:54;7.35;;;5.05;;
40286;SDS011;25998;46.604;13.610;2023-03-04T18:14:10;9.73;;;4.55;;
40286;SDS011;25998;46.604;13.610;2023-03-04T18:17:22;8.70;;;5.30;;
40286;SDS011;25998;46.604;13.610;2023-03-04T18:20:32;19.45;;;6.82;;
40286;SDS011;25998;46.604;13.610;2023-03-04T18:23:43;9.05;;;4.65;;
40286;SDS011;25998;46.604;13.610;2023-03-04T18:26:55;8.57;;;4.45;;
40286;SDS011;25998;46.604;13.610;2023-03-04T18:30:11;12.73;;;5.00;;
40286;SDS011;25998;46.604;13.610;2023-03-04T18:33:29;13.07;;;4.32;;
40286;SDS011;25998;46.604;13.610;2023-03-04T18:36:41;8.40;;;4.28;;
40286;SDS011;25998;46.604;13.610;2023-03-04T18:39:56;8.13;;;4.65;;
40286;SDS011;25998;46.604;13.610;2023-03-04T18:43:12;7.53;;;4.50;;
40286;SDS011;25998;46.604;13.610;2023-03-04T18:46:57;6.93;;;4.03;;
40286;SDS011;25998;46.604;13.610;2023-03-04T18:50:05;6.45;;;3.58;;
40286;SDS011;25998;46.604;13.610;2023-03-04T18:53:28;8.25;;;3.95;;
40286;SDS011;25998;46.604;13.610;2023-03-04T18:57:01;8.00;;;3.75;;
40286;SDS011;25998;46.604;13.610;2023-03-04T19:00:16;5.00;;;3.13;;
40286;SDS011;25998;46.604;13.610;2023-03-04T19:03:30;5.70;;;3.42;;
40286;SDS011;25998;46.604;13.610;2023-03-04T19:06:46;7.03;;;3.58;;
40286;SDS011;25998;46.604;13.610;2023-03-04T19:09:57;7.75;;;3.63;;
40286;SDS011;25998;46.604;13.610;2023-03-04T19:13:11;5.40;;;3.35;;
40286;SDS011;25998;46.604;13.610;2023-03-04T19:16:22;7.78;;;3.38;;
40286;SDS011;25998;46.604;13.610;2023-03-04T19:19:34;5.57;;;2.97;;
40286;SDS011;25998;46.604;13.610;2023-03-04T19:22:45;8.50;;;3.00;;
40286;SDS011;25998;46.604;13.610;2023-03-04T19:25:56;4.28;;;2.58;;
40286;SDS011;25998;46.604;13.610;2023-03-04T19:29:07;6.38;;;2.88;;
40286;SDS011;25998;46.604;13.610;2023-03-04T19:32:18;8.25;;;3.15;;
40286;SDS011;25998;46.604;13.610;2023-03-04T19:35:32;9.07;;;3.25;;
40286;SDS011;25998;46.604;13.610;2023-03-04T19:38:43;8.02;;;3.72;;
40286;SDS011;25998;46.604;13.610;2023-03-04T19:41:57;7.43;;;3.50;;
40286;SDS011;25998;46.604;13.610;2023-03-04T19:45:10;5.70;;;3.40;;
40286;SDS011;25998;46.604;13.610;2023-03-04T19:48:25;6.90;;;3.47;;
40286;SDS011;25998;46.604;13.610;2023-03-04T19:51:38;8.30;;;3.85;;
40286;SDS011;25998;46.604;13.610;2023-03-04T19:54:53;9.77;;;3.90;;
40286;SDS011;25998;46.604;13.610;2023-03-04T19:58:07;7.13;;;3.72;;
40286;SDS011;25998;46.604;13.610;2023-03-04T20:01:36;10.02;;;4.13;;
40286;SDS011;25998;46.604;13.610;2023-03-04T20:04:47;11.98;;;4.20;;
40286;SDS011;25998;46.604;13.610;2023-03-04T20:07:58;8.50;;;3.60;;
40286;SDS011;25998;46.604;13.610;2023-03-04T20:11:13;5.05;;;3.38;;
40286;SDS011;25998;46.604;13.610;2023-03-04T20:14:26;9.27;;;3.60;;
40286;SDS011;25998;46.604;13.610;2023-03-04T20:17:37;5.47;;;3.10;;
40286;SDS011;25998;46.604;13.610;2023-03-04T20:20:48;7.75;;;3.75;;
40286;SDS011;25998;46.604;13.610;2023-03-04T20:24:01;7.68;;;3.55;;
40286;SDS011;25998;46.604;13.610;2023-03-04T20:27:13;6.30;;;3.00;;
40286;SDS011;25998;46.604;13.610;2023-03-04T20:30:24;7.65;;;2.97;;
40286;SDS011;25998;46.604;13.610;2023-03-04T20:33:35;7.30;;;3.42;;
40286;SDS011;25998;46.604;13.610;2023-03-04T20:36:46;7.47;;;3.70;;
40286;SDS011;25998;46.604;13.610;2023-03-04T20:39:57;6.07;;;3.40;;
40286;SDS011;25998;46.604;13.610;2023-03-04T20:43:08;7.88;;;3.13;;
40286;SDS011;25998;46.604;13.610;2023-03-04T20:49:38;8.85;;;3.75;;
40286;SDS011;25998;46.604;13.610;2023-03-04T20:52:49;9.20;;;4.35;;
40286;SDS011;25998;46.604;13.610;2023-03-04T20:56:03;6.68;;;3.33;;
40286;SDS011;25998;46.604;13.610;2023-03-04T20:59:14;9.18;;;3.92;;
40286;SDS011;25998;46.604;13.610;2023-03-04T21:02:26;10.60;;;3.90;;
40286;SDS011;25998;46.604;13.610;2023-03-04T21:05:36;6.90;;;3.45;;
40286;SDS011;25998;46.604;13.610;2023-03-04T21:08:47;9.10;;;3.75;;
40286;SDS011;25998;46.604;13.610;2023-03-04T21:11:58;6.97;;;4.10;;
40286;SDS011;25998;46.604;13.610;2023-03-04T21:15:09;12.35;;;4.40;;